Berkshire, Massachusetts
Current Conditions -  °F | °C
As of 11:54 PM on Saturday 22 Nov 2014 (Local Time) from KPSF Reporting Station
Light Rain Light Rain  
Wind Chill: 29°   Ceiling: 2700
Heat Index: 33°   Visibility: 8mi
Dew Point: 29°   Wind: 5mph
Humidity: 85%   Direction: 220°SW
Pressure: 30.07"   Gusts: NA
Location:  42.51°N, 73.19°W
Report Text: KPSF 230454Z AUTO 22004KT 8SM -RA OVC027 01/M02 A3007 RMK AO2 UPB16E18 SLP190 P0003 T00061017 400281111 $
Loading
Personal Weather Stations






























Interactive Weather Map New forecast layout! Learn more

10-Day Weather Forecast

Advertisements
Track Severe Weather on mobile